createdAt,value
2022-11-26T00:00:16.262Z,22.42
2022-11-26T00:02:43.780Z,23.63
2022-11-26T00:05:13.694Z,21.45
2022-11-26T00:07:41.940Z,25.67
2022-11-26T00:10:35.500Z,27.92
2022-11-26T00:13:03.163Z,26.52
2022-11-26T00:15:32.049Z,24.35
2022-11-26T00:17:59.378Z,29.95
2022-11-26T00:20:31.260Z,26.60
2022-11-26T00:22:59.409Z,27.58
2022-11-26T00:25:28.218Z,32.50
2022-11-26T00:27:56.716Z,24.30
2022-11-26T00:30:25.578Z,28.02
2022-11-26T00:32:53.606Z,25.48
2022-11-26T00:35:21.417Z,23.48
2022-11-26T00:37:50.056Z,25.15
2022-11-26T00:40:22.496Z,22.52
2022-11-26T00:42:49.922Z,25.92
2022-11-26T00:45:18.441Z,23.17
2022-11-26T00:47:45.802Z,27.30
2022-11-26T00:50:17.503Z,26.35
2022-11-26T00:52:45.247Z,21.70
2022-11-26T00:55:39.057Z,26.48
2022-11-26T00:58:07.176Z,27.48
2022-11-26T01:00:35.930Z,29.50
2022-11-26T01:03:03.412Z,26.50
2022-11-26T01:05:33.651Z,24.65
2022-11-26T01:08:03.091Z,23.98
2022-11-26T01:10:30.882Z,24.58
2022-11-26T01:12:58.305Z,27.80
2022-11-26T01:15:27.422Z,21.50
2022-11-26T01:17:55.202Z,27.67
2022-11-26T01:20:27.248Z,25.10
2022-11-26T01:22:55.473Z,27.38
2022-11-26T01:25:23.829Z,25.30
2022-11-26T01:27:51.183Z,23.98
2022-11-26T01:30:25.764Z,23.98
2022-11-26T01:32:53.549Z,29.85
2022-11-26T01:35:22.098Z,27.20
2022-11-26T01:37:49.965Z,29.20
2022-11-26T01:40:26.445Z,26.33
2022-11-26T01:43:00.083Z,31.83
2022-11-26T01:45:27.583Z,28.45
2022-11-26T01:47:54.950Z,36.00
2022-11-26T01:50:34.564Z,26.98
2022-11-26T01:53:07.475Z,28.13
2022-11-26T01:55:40.727Z,25.75
2022-11-26T01:58:11.316Z,29.95
2022-11-26T02:00:38.696Z,30.30
2022-11-26T02:03:06.616Z,31.83
2022-11-26T02:05:37.016Z,29.33
2022-11-26T02:08:04.775Z,25.50
2022-11-26T02:10:34.736Z,30.38
2022-11-26T02:13:02.138Z,28.27
2022-11-26T02:15:34.664Z,36.53
2022-11-26T02:18:04.432Z,29.48
2022-11-26T02:20:44.059Z,30.67
2022-11-26T02:23:17.728Z,29.77
2022-11-26T02:25:45.074Z,25.15
2022-11-26T02:28:18.478Z,33.05
2022-11-26T02:30:50.608Z,28.27
2022-11-26T02:33:21.184Z,30.92
2022-11-26T02:35:50.594Z,27.58
2022-11-26T02:38:20.453Z,31.15
2022-11-26T02:40:47.860Z,27.33
2022-11-26T02:43:16.438Z,31.17
2022-11-26T02:45:46.545Z,25.85
2022-11-26T02:48:19.548Z,31.10
2022-11-26T02:50:48.757Z,28.40
2022-11-26T02:53:17.650Z,27.23
2022-11-26T02:55:47.752Z,29.33
2022-11-26T02:58:15.631Z,31.00
2022-11-26T03:00:43.842Z,26.02
2022-11-26T03:03:23.312Z,30.95
2022-11-26T03:05:55.936Z,27.98
2022-11-26T03:08:23.724Z,30.70
2022-11-26T03:10:51.079Z,28.92
2022-11-26T03:13:18.497Z,30.00
2022-11-26T03:15:48.470Z,27.95
2022-11-26T03:18:16.146Z,22.80
2022-11-26T03:20:43.630Z,29.85
2022-11-26T03:23:11.230Z,27.52
2022-11-26T03:25:38.748Z,24.80
2022-11-26T03:28:06.099Z,29.27
2022-11-26T03:30:33.497Z,31.05
2022-11-26T03:33:00.982Z,33.30
2022-11-26T03:35:28.404Z,33.83
2022-11-26T03:37:55.907Z,28.98
2022-11-26T03:40:23.427Z,37.45
2022-11-26T03:42:50.769Z,37.15
2022-11-26T03:45:18.316Z,36.45
2022-11-26T03:47:45.658Z,33.85
2022-11-26T03:50:13.289Z,33.33
2022-11-26T03:52:40.685Z,38.20
2022-11-26T03:55:08.290Z,30.75
2022-11-26T03:57:35.620Z,30.70
2022-11-26T04:00:03.240Z,28.40
2022-11-26T04:02:30.566Z,26.33
2022-11-26T04:04:57.883Z,24.00
2022-11-26T04:07:25.303Z,27.17
2022-11-26T04:09:52.822Z,26.40
2022-11-26T04:12:20.142Z,34.30
2022-11-26T04:14:47.482Z,34.33
2022-11-26T04:17:17.257Z,29.55
2022-11-26T04:19:44.575Z,33.10
2022-11-26T04:22:11.888Z,31.52
2022-11-26T04:24:39.782Z,26.95
2022-11-26T04:27:07.494Z,26.88
2022-11-26T04:29:36.627Z,33.38
2022-11-26T04:32:04.505Z,25.55
2022-11-26T04:34:32.051Z,29.30
2022-11-26T04:36:59.466Z,33.33
2022-11-26T04:39:26.807Z,25.83
2022-11-26T04:41:54.116Z,27.13
2022-11-26T04:44:21.696Z,21.60
2022-11-26T04:46:48.982Z,31.63
2022-11-26T04:49:16.340Z,23.60
2022-11-26T04:51:43.758Z,23.85
2022-11-26T04:54:13.217Z,26.60
2022-11-26T04:56:40.733Z,20.10
2022-11-26T04:59:08.357Z,23.48
2022-11-26T05:01:35.996Z,22.08
2022-11-26T05:04:03.402Z,19.85
2022-11-26T05:06:30.829Z,19.65
2022-11-26T05:08:58.199Z,21.25
2022-11-26T05:11:25.738Z,24.00
2022-11-26T05:13:53.103Z,21.40
2022-11-26T05:16:20.719Z,19.98
2022-11-26T05:18:48.143Z,20.58
2022-11-26T05:21:15.535Z,24.52
2022-11-26T05:23:42.988Z,22.92
2022-11-26T05:26:10.632Z,25.88
2022-11-26T05:28:38.071Z,23.05
2022-11-26T05:31:05.620Z,23.05
2022-11-26T05:33:32.951Z,22.45
2022-11-26T05:36:00.483Z,21.45
2022-11-26T05:38:28.000Z,27.73
2022-11-26T05:40:55.753Z,21.33
2022-11-26T05:43:23.582Z,23.90
2022-11-26T05:45:50.957Z,22.48
2022-11-26T05:48:18.337Z,21.40
2022-11-26T05:50:48.945Z,23.38
2022-11-26T05:53:18.825Z,23.15
2022-11-26T05:55:46.360Z,25.63
2022-11-26T05:58:13.680Z,20.80
2022-11-26T06:00:41.171Z,20.35
2022-11-26T06:03:08.615Z,25.20
2022-11-26T06:05:36.187Z,25.23
2022-11-26T06:08:03.604Z,23.00
2022-11-26T06:10:31.015Z,26.38
2022-11-26T06:12:58.357Z,22.88
2022-11-26T06:15:25.749Z,19.70
2022-11-26T06:17:53.054Z,19.77
2022-11-26T06:20:20.448Z,22.33
2022-11-26T06:22:47.840Z,21.75
2022-11-26T06:25:15.398Z,23.35
2022-11-26T06:27:42.977Z,21.58
2022-11-26T06:30:11.489Z,26.83
2022-11-26T06:32:38.943Z,27.55
2022-11-26T06:35:06.461Z,25.60
2022-11-26T06:37:33.804Z,26.05
2022-11-26T06:40:01.342Z,22.05
2022-11-26T06:42:29.778Z,23.40
2022-11-26T06:44:59.999Z,22.27
2022-11-26T06:47:27.658Z,25.98
2022-11-26T06:49:55.017Z,26.95
2022-11-26T06:52:22.342Z,24.20
2022-11-26T06:54:50.323Z,61.67
2022-11-26T06:57:17.830Z,32.17
2022-11-26T06:59:45.225Z,29.20
2022-11-26T07:02:12.579Z,36.80
2022-11-26T07:04:40.128Z,44.47
2022-11-26T07:07:07.748Z,33.55
2022-11-26T07:09:35.363Z,27.42
2022-11-26T07:12:02.700Z,26.15
2022-11-26T07:14:30.006Z,22.42
2022-11-26T07:16:57.480Z,25.98
2022-11-26T07:19:25.612Z,26.30
2022-11-26T07:21:53.022Z,32.50
2022-11-26T07:24:20.366Z,23.27
2022-11-26T07:26:47.869Z,24.20
2022-11-26T07:29:16.258Z,22.05
2022-11-26T07:31:43.692Z,28.10
2022-11-26T07:34:11.072Z,24.63
2022-11-26T07:36:43.209Z,27.23
2022-11-26T07:39:11.844Z,24.15
2022-11-26T07:41:39.325Z,25.23
2022-11-26T07:44:06.747Z,27.25
2022-11-26T07:46:34.396Z,34.20
2022-11-26T07:49:01.720Z,27.02
2022-11-26T07:51:30.510Z,27.77
2022-11-26T07:53:58.708Z,23.02
2022-11-26T07:56:26.616Z,27.90
2022-11-26T07:58:54.297Z,25.23
2022-11-26T08:01:23.298Z,23.25
2022-11-26T08:03:51.908Z,22.75
2022-11-26T08:06:20.847Z,20.42
2022-11-26T08:08:48.277Z,22.95
2022-11-26T08:11:16.964Z,21.10
2022-11-26T08:13:44.702Z,20.70
2022-11-26T08:16:12.588Z,20.08
2022-11-26T08:18:40.416Z,23.83
2022-11-26T08:21:07.901Z,23.38
2022-11-26T08:23:35.661Z,24.48
2022-11-26T08:26:24.003Z,23.92
2022-11-26T08:28:53.529Z,24.23
2022-11-26T08:31:21.325Z,26.52
2022-11-26T08:33:48.783Z,25.50
2022-11-26T08:36:16.258Z,22.88
2022-11-26T08:38:43.768Z,26.60
2022-11-26T08:41:12.098Z,29.60
2022-11-26T08:44:05.149Z,23.73
2022-11-26T08:46:27.314Z,29.38
2022-11-26T08:48:58.629Z,27.70
2022-11-26T08:51:26.404Z,23.67
2022-11-26T08:53:53.747Z,27.85
2022-11-26T08:56:21.159Z,28.75
2022-11-26T08:58:49.322Z,26.80
2022-11-26T09:01:18.026Z,25.48
2022-11-26T09:03:45.725Z,24.15
2022-11-26T09:06:13.065Z,24.40
2022-11-26T09:08:59.646Z,32.20
2022-11-26T09:11:27.404Z,24.48
2022-11-26T09:13:55.039Z,32.50
2022-11-26T09:16:25.393Z,24.80
2022-11-26T09:18:53.232Z,28.75
2022-11-26T09:21:20.979Z,29.98
2022-11-26T09:23:48.485Z,27.48
2022-11-26T09:26:15.748Z,25.75
2022-11-26T09:28:43.447Z,27.95
2022-11-26T09:31:10.722Z,27.75
2022-11-26T09:33:38.455Z,27.80
2022-11-26T09:36:07.148Z,29.05
2022-11-26T09:38:34.952Z,42.47
2022-11-26T09:41:20.367Z,30.70
2022-11-26T09:43:53.756Z,33.65
2022-11-26T09:46:25.546Z,31.30
2022-11-26T09:48:54.903Z,26.13
2022-11-26T09:51:22.460Z,26.77
2022-11-26T09:53:51.141Z,35.17
2022-11-26T09:56:22.128Z,26.30
2022-11-26T09:58:58.016Z,28.15
2022-11-26T10:01:25.587Z,29.23
2022-11-26T10:03:53.443Z,24.23
2022-11-26T10:06:20.734Z,28.60
2022-11-26T10:08:51.153Z,28.80
2022-11-26T10:11:36.987Z,24.38
2022-11-26T10:14:24.616Z,30.45
2022-11-26T10:16:52.022Z,27.95
2022-11-26T10:19:23.746Z,26.55
2022-11-26T10:22:00.252Z,23.75
2022-11-26T10:24:31.001Z,35.33
2022-11-26T10:27:00.496Z,26.25
2022-11-26T10:29:33.757Z,24.65
2022-11-26T10:32:06.144Z,26.55
2022-11-26T10:34:43.010Z,26.23
2022-11-26T10:37:10.684Z,26.33
2022-11-26T10:39:38.123Z,23.75
2022-11-26T10:42:12.184Z,22.92
2022-11-26T10:44:41.150Z,22.58
2022-11-26T10:47:21.764Z,24.52
2022-11-26T10:49:50.192Z,23.10
2022-11-26T10:52:20.081Z,22.27
2022-11-26T10:54:47.501Z,28.90
2022-11-26T10:57:20.574Z,20.27
2022-11-26T10:59:52.116Z,22.13
2022-11-26T11:02:30.392Z,20.30
2022-11-26T11:05:03.687Z,17.67
2022-11-26T11:07:38.061Z,21.35
2022-11-26T11:10:07.028Z,18.57
2022-11-26T11:12:34.889Z,16.98
2022-11-26T11:15:31.639Z,16.45
2022-11-26T11:18:01.197Z,13.75
2022-11-26T11:20:28.601Z,15.18
2022-11-26T11:23:00.709Z,19.48
2022-11-26T11:25:30.966Z,18.80
2022-11-26T11:28:24.720Z,18.27
2022-11-26T11:31:04.064Z,21.13
2022-11-26T11:33:32.227Z,13.85
2022-11-26T11:35:59.814Z,15.73
2022-11-26T11:38:28.836Z,12.80
2022-11-26T11:40:56.376Z,16.08
2022-11-26T11:43:24.873Z,19.73
2022-11-26T11:45:58.630Z,15.63
2022-11-26T11:48:47.062Z,16.30
2022-11-26T11:51:20.148Z,17.00
2022-11-26T11:53:53.555Z,18.60
2022-11-26T11:56:35.000Z,18.58
2022-11-26T11:59:17.525Z,14.30
2022-11-26T12:02:03.339Z,16.60
2022-11-26T12:04:37.057Z,16.70
2022-11-26T12:07:14.396Z,19.33
2022-11-26T12:09:47.355Z,16.55
2022-11-26T12:12:25.733Z,16.63
2022-11-26T12:14:56.747Z,17.10
2022-11-26T12:17:26.740Z,15.45
2022-11-26T12:20:22.814Z,17.73
2022-11-26T12:22:52.614Z,13.88
2022-11-26T12:25:33.552Z,16.92
2022-11-26T12:28:17.468Z,14.80
2022-11-26T12:30:49.545Z,17.55
2022-11-26T12:33:20.813Z,15.45
2022-11-26T12:35:59.943Z,17.55
2022-11-26T12:38:38.865Z,14.80
2022-11-26T12:41:10.408Z,17.27
2022-11-26T12:43:54.283Z,20.48
2022-11-26T12:46:28.102Z,21.02
2022-11-26T12:48:59.886Z,16.90
2022-11-26T12:51:30.418Z,16.67
2022-11-26T12:54:03.959Z,17.17
2022-11-26T12:56:37.786Z,18.30
2022-11-26T12:59:18.781Z,17.45
2022-11-26T13:01:46.255Z,18.38
2022-11-26T13:04:36.713Z,16.55
2022-11-26T13:07:01.310Z,17.40
2022-11-26T13:09:43.844Z,16.13
2022-11-26T13:12:30.035Z,18.90
2022-11-26T13:15:00.351Z,16.35
2022-11-26T13:17:47.470Z,17.50
2022-11-26T13:20:33.287Z,18.92
2022-11-26T13:23:06.827Z,17.88
2022-11-26T13:25:39.731Z,17.27
2022-11-26T13:28:33.435Z,22.08
2022-11-26T13:31:19.709Z,18.45
2022-11-26T13:33:47.034Z,19.23
2022-11-26T13:36:17.259Z,17.70
2022-11-26T13:39:01.889Z,17.65
2022-11-26T13:41:38.114Z,21.13
2022-11-26T13:44:07.078Z,17.35
2022-11-26T13:46:56.311Z,19.10
2022-11-26T13:49:27.495Z,15.82
2022-11-26T13:52:17.413Z,13.48
2022-11-26T13:54:44.689Z,18.98
2022-11-26T13:57:17.073Z,17.98
2022-11-26T13:59:50.074Z,17.33
2022-11-26T14:02:36.900Z,19.60
2022-11-26T14:05:07.549Z,13.32
2022-11-26T14:07:35.079Z,18.67
2022-11-26T14:10:04.011Z,17.35
2022-11-26T14:13:00.814Z,17.95
2022-11-26T14:15:48.469Z,12.93
2022-11-26T14:18:20.450Z,20.40
2022-11-26T14:21:00.699Z,17.90
2022-11-26T14:23:47.664Z,14.45
2022-11-26T14:26:17.612Z,18.67
2022-11-26T14:28:45.142Z,14.00
2022-11-26T14:31:16.485Z,13.02
2022-11-26T14:33:46.739Z,11.15
2022-11-26T14:36:32.712Z,15.18
2022-11-26T14:39:13.830Z,14.18
2022-11-26T14:41:44.207Z,12.00
2022-11-26T14:44:12.865Z,17.15
2022-11-26T14:46:41.617Z,9.65
2022-11-26T14:49:35.278Z,14.13
2022-11-26T14:52:03.386Z,14.07
2022-11-26T14:54:34.892Z,10.95
2022-11-26T14:57:11.759Z,15.82
2022-11-26T14:59:54.984Z,13.60
2022-11-26T15:02:23.241Z,11.80
2022-11-26T15:05:09.570Z,12.68
2022-11-26T15:07:37.022Z,11.23
2022-11-26T15:10:07.866Z,10.55
2022-11-26T15:12:36.260Z,11.50
2022-11-26T15:15:04.230Z,10.85
2022-11-26T15:17:32.676Z,12.57
2022-11-26T15:20:02.075Z,11.98
2022-11-26T15:22:29.429Z,16.00
2022-11-26T15:24:58.022Z,15.57
2022-11-26T15:27:29.656Z,15.82
2022-11-26T15:29:57.255Z,11.00
2022-11-26T15:32:28.861Z,13.55
2022-11-26T15:34:57.925Z,9.35
2022-11-26T15:37:25.270Z,12.68
2022-11-26T15:40:08.803Z,8.38
2022-11-26T15:42:36.261Z,13.52
2022-11-26T15:45:03.869Z,10.85
2022-11-26T15:47:31.307Z,11.70
2022-11-26T15:50:01.067Z,12.77
2022-11-26T15:52:35.589Z,12.35
2022-11-26T15:55:13.711Z,10.40
2022-11-26T15:57:42.109Z,9.90
2022-11-26T16:00:21.431Z,10.18
2022-11-26T16:02:48.897Z,11.50
2022-11-26T16:05:32.152Z,10.68
2022-11-26T16:08:06.956Z,8.63
2022-11-26T16:10:40.853Z,11.07
2022-11-26T16:13:14.394Z,8.30
2022-11-26T16:16:08.841Z,6.85
2022-11-26T16:18:45.303Z,8.05
2022-11-26T16:21:27.949Z,9.82
2022-11-26T16:23:58.680Z,10.68
2022-11-26T16:26:26.491Z,14.50
2022-11-26T16:28:54.081Z,15.57
2022-11-26T16:31:22.230Z,10.32
2022-11-26T16:33:49.904Z,11.30
2022-11-26T16:36:17.197Z,14.57
2022-11-26T16:38:44.870Z,10.77
2022-11-26T16:41:13.210Z,12.82
2022-11-26T16:43:40.859Z,21.33
2022-11-26T16:46:16.099Z,8.85
2022-11-26T16:51:13.571Z,10.35
2022-11-26T16:53:40.975Z,8.98
2022-11-26T16:56:12.249Z,6.85
2022-11-26T16:58:39.655Z,7.05
2022-11-26T17:01:07.315Z,11.65
2022-11-26T17:03:35.001Z,9.98
2022-11-26T17:06:03.975Z,15.25
2022-11-26T17:08:31.724Z,8.60
2022-11-26T17:10:59.172Z,8.30
2022-11-26T17:13:29.017Z,8.07
2022-11-26T17:15:56.836Z,7.78
2022-11-26T17:18:25.402Z,9.70
2022-11-26T17:20:54.068Z,7.88
2022-11-26T17:23:21.678Z,6.25
2022-11-26T17:25:53.453Z,6.00
2022-11-26T17:28:21.428Z,5.00
2022-11-26T17:30:48.782Z,7.22
2022-11-26T17:33:16.232Z,6.45
2022-11-26T17:35:43.539Z,5.43
2022-11-26T17:38:19.371Z,8.07
2022-11-26T17:40:47.173Z,7.07
2022-11-26T17:43:15.005Z,7.25
2022-11-26T17:45:42.428Z,7.15
2022-11-26T17:48:14.346Z,6.18
2022-11-26T17:50:41.823Z,5.93
2022-11-26T17:53:09.317Z,8.38
2022-11-26T17:55:36.864Z,6.85
2022-11-26T17:58:04.548Z,5.45
2022-11-26T18:00:32.018Z,6.50
2022-11-26T18:02:59.514Z,6.63
2022-11-26T18:05:27.380Z,5.13
2022-11-26T18:07:54.944Z,8.18
2022-11-26T18:10:23.270Z,8.18
2022-11-26T18:12:52.892Z,11.60
2022-11-26T18:15:22.261Z,9.23
2022-11-26T18:17:51.145Z,8.38
2022-11-26T18:20:19.957Z,8.13
2022-11-26T18:22:47.427Z,8.02
2022-11-26T18:25:14.916Z,7.57
2022-11-26T18:27:42.458Z,8.32
2022-11-26T18:30:10.000Z,9.82
2022-11-26T18:32:40.304Z,12.50
2022-11-26T18:35:08.099Z,11.13
2022-11-26T18:37:36.207Z,9.40
2022-11-26T18:40:04.157Z,8.73
2022-11-26T18:42:39.023Z,8.25
2022-11-26T18:45:11.933Z,10.30
2022-11-26T18:47:39.376Z,8.45
2022-11-26T18:50:07.304Z,7.57
2022-11-26T18:52:34.647Z,8.73
2022-11-26T18:55:05.201Z,6.60
2022-11-26T18:57:33.117Z,8.65
2022-11-26T19:00:00.729Z,5.90
2022-11-26T19:02:28.255Z,8.45
2022-11-26T19:04:55.645Z,5.50
2022-11-26T19:07:23.174Z,5.97
2022-11-26T19:09:50.936Z,6.05
2022-11-26T19:12:18.337Z,5.20
2022-11-26T19:14:45.730Z,6.00
2022-11-26T19:17:13.117Z,8.02
2022-11-26T19:19:40.715Z,7.88
2022-11-26T19:22:08.187Z,4.95
2022-11-26T19:24:35.686Z,7.30
2022-11-26T19:27:03.042Z,8.52
2022-11-26T19:29:30.906Z,10.85
2022-11-26T19:31:58.500Z,10.40
2022-11-26T19:34:26.027Z,6.10
2022-11-26T19:36:57.847Z,7.25
2022-11-26T19:39:25.368Z,8.20
2022-11-26T19:41:52.686Z,7.55
2022-11-26T19:44:20.069Z,8.95
2022-11-26T19:46:48.392Z,7.05
2022-11-26T19:49:15.961Z,7.10
2022-11-26T19:51:43.335Z,12.38
2022-11-26T19:54:10.925Z,8.02
2022-11-26T19:56:38.393Z,8.85
2022-11-26T19:59:05.990Z,7.07
2022-11-26T20:01:34.507Z,9.20
2022-11-26T20:04:04.244Z,11.05
2022-11-26T20:06:32.525Z,15.25
2022-11-26T20:08:59.879Z,17.65
2022-11-26T20:11:27.949Z,12.70
2022-11-26T20:13:56.294Z,14.73
2022-11-26T20:16:25.424Z,14.38
2022-11-26T20:18:52.999Z,15.50
2022-11-26T20:21:21.632Z,14.23
2022-11-26T20:23:49.884Z,16.73
2022-11-26T20:26:23.248Z,14.75
2022-11-26T20:28:50.963Z,14.15
2022-11-26T20:31:23.564Z,16.70
2022-11-26T20:33:53.085Z,15.35
2022-11-26T20:36:23.102Z,18.67
2022-11-26T20:38:54.639Z,19.17
2022-11-26T20:41:22.692Z,23.65
2022-11-26T20:43:54.939Z,17.45
2022-11-26T20:46:25.955Z,20.10
2022-11-26T20:48:53.410Z,20.77
2022-11-26T20:51:22.447Z,23.90
2022-11-26T20:53:50.919Z,22.30
2022-11-26T20:56:19.453Z,28.60
2022-11-26T20:58:46.960Z,22.63
2022-11-26T21:01:22.212Z,28.05
2022-11-26T21:06:17.717Z,21.13
2022-11-26T21:08:45.263Z,19.27
2022-11-26T21:11:13.161Z,20.50
2022-11-26T21:13:41.172Z,21.83
2022-11-26T21:16:10.781Z,16.33
2022-11-26T21:18:38.589Z,19.55
2022-11-26T21:21:09.780Z,19.27
2022-11-26T21:23:40.828Z,19.63
2022-11-26T21:26:12.660Z,18.80
2022-11-26T21:28:39.989Z,19.15
2022-11-26T21:31:26.110Z,15.93
2022-11-26T21:33:57.200Z,15.45
2022-11-26T21:36:25.025Z,18.83
2022-11-26T21:38:52.654Z,21.00
2022-11-26T21:41:20.421Z,17.40
2022-11-26T21:43:48.097Z,18.63
2022-11-26T21:46:17.170Z,14.95
2022-11-26T21:48:44.575Z,54.20
2022-11-26T21:51:17.694Z,17.02
2022-11-26T21:53:45.352Z,21.67
2022-11-26T21:56:18.778Z,20.70
2022-11-26T21:58:46.586Z,21.90
2022-11-26T22:01:15.579Z,18.75
2022-11-26T22:03:43.803Z,20.90
2022-11-26T22:06:11.813Z,18.88
2022-11-26T22:08:39.541Z,19.80
2022-11-26T22:11:14.758Z,19.27
2022-11-26T22:13:42.584Z,19.67
2022-11-26T22:16:10.574Z,17.02
2022-11-26T22:18:41.776Z,20.17
2022-11-26T22:21:11.668Z,17.33
2022-11-26T22:23:39.000Z,19.98
2022-11-26T22:26:06.427Z,22.40
2022-11-26T22:28:34.027Z,25.17
2022-11-26T22:31:08.731Z,20.42
2022-11-26T22:33:36.096Z,20.13
2022-11-26T22:36:03.629Z,32.00
2022-11-26T22:38:32.351Z,26.98
2022-11-26T22:41:03.647Z,36.50
2022-11-26T22:43:31.681Z,36.90
2022-11-26T22:45:59.475Z,33.13
2022-11-26T22:48:26.992Z,31.45
2022-11-26T22:50:55.114Z,30.08
2022-11-26T22:53:23.141Z,32.33
2022-11-26T22:55:51.609Z,35.95
2022-11-26T22:58:19.531Z,33.28
2022-11-26T23:00:46.883Z,30.38
2022-11-26T23:03:14.349Z,33.22
2022-11-26T23:05:41.957Z,35.45
2022-11-26T23:08:09.287Z,29.45
2022-11-26T23:10:36.780Z,33.22
2022-11-26T23:13:04.438Z,26.98
2022-11-26T23:15:31.802Z,30.63
2022-11-26T23:17:59.430Z,34.10
2022-11-26T23:20:26.820Z,31.20
2022-11-26T23:22:54.218Z,32.10
2022-11-26T23:25:21.623Z,35.50
2022-11-26T23:27:49.141Z,31.55
2022-11-26T23:30:16.633Z,34.47
2022-11-26T23:32:44.165Z,28.25
2022-11-26T23:35:11.515Z,30.83
2022-11-26T23:37:39.529Z,24.90
2022-11-26T23:40:07.809Z,30.45
2022-11-26T23:42:35.260Z,24.20
2022-11-26T23:45:03.222Z,36.33
2022-11-26T23:47:30.535Z,33.35
2022-11-26T23:50:00.841Z,25.80
2022-11-26T23:52:28.591Z,26.10
2022-11-26T23:54:55.930Z,27.63
2022-11-26T23:57:23.275Z,24.13
2022-11-26T23:59:51.064Z,26.40
